createdAt,value
2018-07-31T00:00:22.510Z,64.04
2018-07-31T00:01:22.533Z,64.43
2018-07-31T00:02:22.456Z,64.14
2018-07-31T00:03:22.603Z,64.43
2018-07-31T00:04:22.437Z,64.62
2018-07-31T00:05:22.457Z,64.92
2018-07-31T00:06:22.386Z,64.72
2018-07-31T00:07:22.386Z,64.72
2018-07-31T00:08:22.335Z,64.72
2018-07-31T00:09:22.380Z,64.53
2018-07-31T00:10:22.293Z,64.62
2018-07-31T00:11:22.294Z,64.72
2018-07-31T00:12:22.249Z,64.92
2018-07-31T00:13:22.324Z,64.92
2018-07-31T00:14:22.217Z,64.72
2018-07-31T00:15:22.224Z,65.01
2018-07-31T00:16:22.177Z,64.82
2018-07-31T00:17:24.173Z,64.72
2018-07-31T00:18:22.155Z,65.40
2018-07-31T00:19:23.164Z,65.40
2018-07-31T00:20:22.096Z,65.50
2018-07-31T00:21:22.176Z,65.69
2018-07-31T00:22:22.049Z,65.69
2018-07-31T00:23:22.082Z,66.08
2018-07-31T00:24:22.015Z,65.59
2018-07-31T00:25:22.078Z,66.66
2018-07-31T00:26:21.978Z,66.17
2018-07-31T00:27:21.989Z,66.14
2018-07-31T00:28:21.947Z,66.82
2018-07-31T00:29:22.005Z,66.24
2018-07-31T00:30:21.885Z,66.37
2018-07-31T00:31:21.874Z,67.14
2018-07-31T00:32:21.856Z,66.95
2018-07-31T00:33:21.946Z,66.53
2018-07-31T00:34:21.814Z,66.91
2018-07-31T00:35:21.844Z,67.63
2018-07-31T00:36:21.791Z,67.01
2018-07-31T00:37:21.847Z,67.24
2018-07-31T00:38:21.734Z,67.11
2018-07-31T00:39:21.763Z,67.49
2018-07-31T00:40:21.691Z,67.49
2018-07-31T00:41:21.783Z,67.88
2018-07-31T00:42:21.648Z,68.17
2018-07-31T00:43:21.689Z,68.75
2018-07-31T00:44:21.615Z,69.14
2018-07-31T00:45:21.597Z,69.24
2018-07-31T00:46:21.566Z,68.37
2018-07-31T00:47:21.612Z,68.37
2018-07-31T00:48:21.532Z,68.95
2018-07-31T00:49:21.628Z,68.43
2018-07-31T00:50:21.482Z,69.10
2018-07-31T00:51:22.566Z,69.01
2018-07-31T00:52:21.464Z,69.10
2018-07-31T00:53:21.447Z,69.10
2018-07-31T00:54:21.415Z,70.07
2018-07-31T00:55:21.459Z,69.88
2018-07-31T00:56:21.365Z,69.49
2018-07-31T00:57:21.377Z,70.07
2018-07-31T00:58:21.321Z,70.75
2018-07-31T00:59:21.382Z,72.30
2018-07-31T01:00:21.281Z,71.91
2018-07-31T01:01:22.315Z,71.04
2018-07-31T01:02:21.254Z,70.56
2018-07-31T01:03:26.009Z,70.65
2018-07-31T01:04:21.203Z,70.75
2018-07-31T01:05:21.236Z,70.84
2018-07-31T01:06:21.172Z,71.23
2018-07-31T01:07:21.251Z,72.00
2018-07-31T01:08:21.118Z,71.33
2018-07-31T01:10:07.171Z,71.42
2018-07-31T01:11:07.158Z,71.72
2018-07-31T01:12:07.084Z,71.72
2018-07-31T01:13:07.151Z,72.00
2018-07-31T01:14:07.019Z,72.68
2018-07-31T01:15:07.054Z,72.49
2018-07-31T01:16:06.964Z,72.94
2018-07-31T01:17:07.070Z,73.32
2018-07-31T01:18:06.938Z,74.00
2018-07-31T01:19:06.967Z,74.00
2018-07-31T01:20:06.896Z,74.00
2018-07-31T01:21:07.908Z,74.38
2018-07-31T01:22:06.848Z,74.77
2018-07-31T01:23:06.888Z,74.77
2018-07-31T01:24:06.805Z,75.06
2018-07-31T01:25:07.840Z,74.58
2018-07-31T01:26:06.774Z,74.87
2018-07-31T01:27:06.830Z,75.74
2018-07-31T01:28:06.723Z,75.64
2018-07-31T01:29:07.748Z,75.35
2018-07-31T01:30:06.691Z,75.16
2018-07-31T01:31:06.737Z,75.16
2018-07-31T01:32:06.648Z,75.64
2018-07-31T01:33:06.667Z,76.03
2018-07-31T01:34:06.608Z,75.93
2018-07-31T01:35:06.663Z,76.42
2018-07-31T01:36:06.570Z,77.00
2018-07-31T01:37:06.585Z,76.86
2018-07-31T01:38:53.381Z,76.76
2018-07-31T01:39:54.409Z,77.53
2018-07-31T01:40:53.311Z,77.44
2018-07-31T01:41:58.305Z,77.53
2018-07-31T01:42:53.269Z,77.53
2018-07-31T01:43:53.284Z,77.83
2018-07-31T01:44:54.342Z,77.73
2018-07-31T01:45:53.252Z,78.02
2018-07-31T01:46:53.190Z,78.11
2018-07-31T01:47:53.165Z,78.21
2018-07-31T01:48:53.150Z,78.69
2018-07-31T01:49:53.242Z,79.17
2018-07-31T01:50:53.103Z,79.08
2018-07-31T01:51:54.184Z,78.69
2018-07-31T01:52:53.064Z,79.66
2018-07-31T01:53:53.062Z,79.91
2018-07-31T01:54:53.022Z,79.91
2018-07-31T01:55:53.090Z,79.81
2018-07-31T01:56:52.983Z,79.81
2018-07-31T01:57:53.002Z,79.72
2018-07-31T01:58:52.932Z,80.30
2018-07-31T01:59:53.009Z,80.39
2018-07-31T02:00:52.894Z,80.58
2018-07-31T02:01:53.939Z,81.07
2018-07-31T02:02:52.854Z,81.07
2018-07-31T02:03:54.028Z,80.78
2018-07-31T02:04:52.847Z,80.97
2018-07-31T02:05:52.849Z,81.35
2018-07-31T02:06:52.768Z,81.26
2018-07-31T02:07:52.852Z,82.23
2018-07-31T02:08:52.739Z,82.23
2018-07-31T02:09:52.771Z,82.23
2018-07-31T02:10:52.708Z,82.61
2018-07-31T02:11:52.786Z,82.42
2018-07-31T02:12:43.556Z,83.19
2018-07-31T02:13:44.598Z,83.29
2018-07-31T02:14:43.494Z,83.48
2018-07-31T02:15:43.491Z,83.96
2018-07-31T02:16:43.448Z,83.67
2018-07-31T02:17:43.500Z,84.16
2018-07-31T02:18:43.418Z,84.35
2018-07-31T02:19:44.429Z,84.74
2018-07-31T02:20:43.378Z,84.54
2018-07-31T02:21:43.451Z,84.83
2018-07-31T02:22:43.321Z,85.22
2018-07-31T02:23:43.341Z,85.70
2018-07-31T02:24:43.296Z,85.60
2018-07-31T02:25:43.357Z,85.99
2018-07-31T02:26:43.242Z,87.44
2018-07-31T02:27:43.252Z,87.34
2018-07-31T02:28:43.278Z,87.20
2018-07-31T02:29:43.272Z,88.17
2018-07-31T02:30:43.163Z,88.11
2018-07-31T02:31:43.173Z,88.45
2018-07-31T02:32:43.119Z,88.98
2018-07-31T02:33:43.193Z,89.23
2018-07-31T02:34:43.079Z,89.17
2018-07-31T02:35:43.102Z,89.51
2018-07-31T02:36:43.074Z,89.61
2018-07-31T02:37:43.112Z,90.29
2018-07-31T02:38:43.026Z,90.72
2018-07-31T02:39:44.042Z,90.58
2018-07-31T02:40:42.963Z,90.29
2018-07-31T02:41:43.034Z,91.06
2018-07-31T02:42:42.910Z,90.87
2018-07-31T02:43:43.970Z,91.39
2018-07-31T02:44:42.880Z,91.25
2018-07-31T02:45:43.886Z,92.26
2018-07-31T02:46:42.863Z,92.32
2018-07-31T02:47:42.889Z,91.74
2018-07-31T02:48:42.800Z,92.41
2018-07-31T02:49:43.811Z,93.37
2018-07-31T02:50:42.747Z,93.37
2018-07-31T02:51:47.406Z,93.18
2018-07-31T02:52:42.708Z,94.15
2018-07-31T02:53:42.703Z,94.92
2018-07-31T02:54:42.663Z,94.24
2018-07-31T02:55:42.729Z,94.63
2018-07-31T02:56:42.622Z,94.73
2018-07-31T02:57:42.638Z,95.01
2018-07-31T02:58:42.606Z,95.11
2018-07-31T02:59:42.642Z,94.63
2018-07-31T03:00:42.539Z,94.92
2018-07-31T03:01:42.564Z,94.92
2018-07-31T03:02:42.500Z,95.01
2018-07-31T03:03:42.566Z,94.82
2018-07-31T03:04:42.450Z,94.92
2018-07-31T03:05:42.492Z,94.92
2018-07-31T03:06:42.415Z,94.73
2018-07-31T03:07:42.491Z,94.63
2018-07-31T03:08:42.365Z,94.82
2018-07-31T03:09:42.511Z,94.73
2018-07-31T03:10:42.343Z,95.01
2018-07-31T03:11:43.341Z,95.11
2018-07-31T03:12:42.285Z,95.31
2018-07-31T03:13:43.360Z,95.59
2018-07-31T03:14:42.249Z,95.54
2018-07-31T03:15:44.290Z,95.21
2018-07-31T03:16:42.207Z,94.92
2018-07-31T03:17:42.246Z,94.78
2018-07-31T03:18:42.165Z,95.21
2018-07-31T03:19:42.164Z,94.82
2018-07-31T03:20:42.213Z,95.01
2018-07-31T03:21:42.172Z,94.68
2018-07-31T03:22:42.086Z,94.68
2018-07-31T03:23:42.081Z,94.96
2018-07-31T03:24:42.073Z,94.68
2018-07-31T03:25:42.167Z,94.78
2018-07-31T03:26:41.995Z,94.68
2018-07-31T03:27:41.974Z,95.26
2018-07-31T03:29:27.984Z,95.54
2018-07-31T03:30:27.990Z,94.87
2018-07-31T03:31:27.917Z,94.68
2018-07-31T03:32:27.907Z,95.26
2018-07-31T03:33:27.907Z,95.54
2018-07-31T03:34:27.917Z,95.93
2018-07-31T03:35:27.835Z,96.32
2018-07-31T03:36:27.822Z,96.51
2018-07-31T03:37:27.793Z,96.27
2018-07-31T03:38:27.838Z,95.74
2018-07-31T03:39:27.746Z,96.12
2018-07-31T03:40:27.751Z,96.12
2018-07-31T03:41:27.718Z,96.22
2018-07-31T03:42:27.757Z,96.80
2018-07-31T03:43:27.680Z,96.80
2018-07-31T03:44:27.678Z,95.89
2018-07-31T03:45:27.643Z,95.36
2018-07-31T03:46:27.690Z,96.85
2018-07-31T03:47:27.583Z,96.89
2018-07-31T03:48:27.614Z,96.22
2018-07-31T03:49:27.542Z,95.69
2018-07-31T03:50:27.609Z,95.02
2018-07-31T03:51:27.509Z,94.82
2018-07-31T03:52:27.523Z,95.79
2018-07-31T03:53:27.464Z,95.98
2018-07-31T03:54:27.550Z,95.98
2018-07-31T03:55:27.416Z,96.08
2018-07-31T03:56:27.468Z,96.37
2018-07-31T03:57:27.449Z,95.98
2018-07-31T03:58:27.361Z,95.50
2018-07-31T03:59:28.391Z,96.08
2018-07-31T04:00:27.327Z,95.89
2018-07-31T04:01:27.389Z,95.98
2018-07-31T04:02:27.279Z,96.17
2018-07-31T04:03:27.303Z,96.46
2018-07-31T04:04:27.234Z,96.75
2018-07-31T04:06:15.733Z,96.75
2018-07-31T04:07:15.692Z,96.17
2018-07-31T04:09:11.491Z,96.66
2018-07-31T04:10:12.491Z,97.24
2018-07-31T04:11:11.431Z,96.94
2018-07-31T04:12:12.490Z,98.39
2018-07-31T04:13:11.376Z,98.39
2018-07-31T04:14:11.385Z,97.81
2018-07-31T04:15:11.339Z,98.68
2018-07-31T04:16:11.399Z,98.39
2018-07-31T04:17:11.355Z,98.58
2018-07-31T04:18:11.319Z,98.68
2018-07-31T04:19:11.253Z,98.77
2018-07-31T04:20:11.325Z,99.64
2018-07-31T04:21:11.237Z,98.87
2018-07-31T04:22:11.234Z,98.97
2018-07-31T04:23:11.179Z,98.68
2018-07-31T04:24:11.246Z,98.49
2018-07-31T04:25:11.136Z,98.77
2018-07-31T04:26:12.184Z,98.49
2018-07-31T04:27:11.405Z,98.29
2018-07-31T04:28:11.181Z,98.87
2018-07-31T04:29:11.067Z,98.29
2018-07-31T04:30:11.124Z,98.20
2018-07-31T04:31:11.087Z,98.49
2018-07-31T04:32:11.422Z,98.39
2018-07-31T04:33:11.266Z,97.62
2018-07-31T04:34:11.329Z,98.68
2018-07-31T04:35:11.228Z,98.10
2018-07-31T04:36:10.947Z,98.25
2018-07-31T04:37:10.883Z,97.42
2018-07-31T04:38:10.925Z,97.42
2018-07-31T04:39:10.846Z,97.81
2018-07-31T04:40:10.835Z,97.96
2018-07-31T04:41:10.848Z,97.57
2018-07-31T04:42:56.829Z,97.86
2018-07-31T04:43:56.835Z,98.05
2018-07-31T04:44:56.753Z,98.73
2018-07-31T04:45:56.853Z,98.73
2018-07-31T04:46:56.714Z,98.92
2018-07-31T04:47:56.750Z,98.54
2018-07-31T04:48:56.663Z,97.86
2018-07-31T04:49:56.676Z,98.34
2018-07-31T04:50:56.640Z,97.57
2018-07-31T04:51:56.677Z,98.44
2018-07-31T04:52:56.586Z,98.05
2018-07-31T04:53:56.586Z,97.38
2018-07-31T04:54:56.553Z,97.24
2018-07-31T04:55:56.605Z,97.28
2018-07-31T04:56:56.516Z,97.52
2018-07-31T04:57:56.527Z,97.28
2018-07-31T04:58:56.466Z,96.66
2018-07-31T04:59:56.532Z,96.94
2018-07-31T05:00:56.421Z,96.75
2018-07-31T05:02:42.350Z,96.84
2018-07-31T05:03:42.377Z,96.27
2018-07-31T05:04:42.236Z,96.46
2018-07-31T05:05:42.333Z,96.27
2018-07-31T05:06:42.218Z,95.69
2018-07-31T05:07:43.574Z,95.01
2018-07-31T05:08:42.156Z,95.11
2018-07-31T05:09:42.162Z,95.25
2018-07-31T05:10:42.131Z,94.38
2018-07-31T05:11:42.176Z,94.29
2018-07-31T05:12:42.084Z,93.71
2018-07-31T05:13:43.104Z,94.10
2018-07-31T05:14:42.027Z,93.71
2018-07-31T05:15:42.095Z,93.37
2018-07-31T05:16:41.991Z,92.98
2018-07-31T05:17:42.003Z,92.98
2018-07-31T05:18:41.949Z,92.84
2018-07-31T05:19:42.020Z,92.74
2018-07-31T05:20:41.913Z,92.79
2018-07-31T05:21:41.921Z,93.13
2018-07-31T05:22:41.871Z,93.42
2018-07-31T05:23:41.932Z,93.42
2018-07-31T05:24:41.833Z,92.69
2018-07-31T05:26:27.824Z,92.50
2018-07-31T05:27:27.841Z,92.69
2018-07-31T05:28:27.752Z,92.31
2018-07-31T05:29:27.778Z,92.31
2018-07-31T05:30:27.710Z,91.25
2018-07-31T05:31:27.763Z,90.95
2018-07-31T05:32:27.696Z,91.25
2018-07-31T05:33:27.640Z,90.67
2018-07-31T05:34:27.627Z,91.05
2018-07-31T05:35:27.601Z,91.35
2018-07-31T05:36:27.580Z,91.35
2018-07-31T05:37:27.576Z,90.95
2018-07-31T05:38:27.607Z,90.67
2018-07-31T05:39:27.552Z,91.25
2018-07-31T05:40:27.546Z,91.25
2018-07-31T05:41:27.475Z,91.15
2018-07-31T05:42:27.559Z,90.67
2018-07-31T05:43:27.437Z,90.77
2018-07-31T05:44:28.514Z,90.09
2018-07-31T05:45:27.390Z,90.77
2018-07-31T05:46:27.456Z,90.67
2018-07-31T05:47:27.360Z,90.52
2018-07-31T05:48:27.352Z,90.47
2018-07-31T05:49:27.300Z,90.19
2018-07-31T05:50:27.367Z,90.37
2018-07-31T05:51:27.260Z,90.47
2018-07-31T05:52:27.385Z,90.67
2018-07-31T05:53:27.236Z,90.37
2018-07-31T05:54:28.329Z,90.47
2018-07-31T05:55:27.182Z,90.52
2018-07-31T05:56:27.214Z,90.23
2018-07-31T05:57:27.152Z,90.23
2018-07-31T05:58:27.228Z,90.52
2018-07-31T05:59:27.100Z,89.75
2018-07-31T06:00:27.128Z,89.65
2018-07-31T06:01:27.053Z,89.84
2018-07-31T06:02:27.133Z,89.45
2018-07-31T06:03:27.032Z,89.45
2018-07-31T06:04:27.084Z,89.45
2018-07-31T06:05:26.968Z,89.26
2018-07-31T06:06:27.065Z,88.97
2018-07-31T06:07:26.924Z,89.01
2018-07-31T06:08:26.974Z,88.92
2018-07-31T06:09:26.944Z,88.43
2018-07-31T06:10:26.884Z,88.73
2018-07-31T06:11:26.885Z,88.05
2018-07-31T06:12:26.897Z,87.27
2018-07-31T06:13:26.810Z,87.66
2018-07-31T06:14:26.809Z,87.57
2018-07-31T06:15:26.762Z,88.24
2018-07-31T06:16:26.743Z,88.15
2018-07-31T06:17:26.719Z,87.27
2018-07-31T06:18:27.813Z,87.08
2018-07-31T06:19:26.677Z,87.47
2018-07-31T06:20:26.686Z,86.69
2018-07-31T06:21:26.642Z,87.37
2018-07-31T06:22:26.714Z,86.69
2018-07-31T06:23:26.596Z,87.27
2018-07-31T06:24:26.664Z,86.41
2018-07-31T06:25:26.558Z,85.58
2018-07-31T06:26:27.561Z,86.25
2018-07-31T06:27:26.506Z,85.87
2018-07-31T06:28:26.546Z,85.97
2018-07-31T06:29:26.465Z,86.25
2018-07-31T06:30:26.568Z,86.10
2018-07-31T06:32:13.061Z,85.14
2018-07-31T06:33:13.005Z,84.56
2018-07-31T06:34:12.999Z,84.36
2018-07-31T06:35:12.968Z,83.78
2018-07-31T06:36:12.947Z,83.01
2018-07-31T06:37:12.919Z,83.30
2018-07-31T06:38:12.990Z,83.40
2018-07-31T06:39:12.871Z,83.05
2018-07-31T06:40:12.899Z,82.66
2018-07-31T06:41:12.841Z,81.50
2018-07-31T06:42:12.818Z,80.73
2018-07-31T06:43:12.789Z,80.63
2018-07-31T06:44:12.772Z,81.02
2018-07-31T06:45:12.752Z,80.96
2018-07-31T06:46:12.751Z,80.09
2018-07-31T06:47:12.713Z,79.90
2018-07-31T06:48:13.697Z,79.90
2018-07-31T06:49:12.676Z,79.80
2018-07-31T06:50:12.709Z,79.60
2018-07-31T06:51:12.665Z,79.50
2018-07-31T06:52:13.642Z,78.74
2018-07-31T06:53:12.627Z,79.02
2018-07-31T06:54:12.631Z,79.02
2018-07-31T06:55:12.537Z,78.92
2018-07-31T06:56:12.544Z,79.02
2018-07-31T06:57:12.516Z,79.02
2018-07-31T06:58:13.579Z,78.64
2018-07-31T06:59:12.472Z,78.38
2018-07-31T07:00:13.491Z,77.80
2018-07-31T07:01:12.435Z,78.09
2018-07-31T07:02:12.502Z,78.09
2018-07-31T07:03:12.374Z,77.61
2018-07-31T07:04:12.395Z,77.70
2018-07-31T07:05:12.338Z,76.83
2018-07-31T07:06:12.414Z,76.97
2018-07-31T07:07:12.298Z,76.68
2018-07-31T07:08:12.317Z,76.97
2018-07-31T07:09:12.292Z,76.68
2018-07-31T07:10:12.322Z,76.42
2018-07-31T07:11:12.209Z,77.01
2018-07-31T07:12:13.260Z,76.81
2018-07-31T07:13:12.162Z,76.04
2018-07-31T07:14:14.197Z,76.72
2018-07-31T07:15:12.113Z,76.52
2018-07-31T07:16:14.205Z,76.14
2018-07-31T07:17:12.077Z,75.26
2018-07-31T07:18:12.175Z,75.16
2018-07-31T07:19:12.034Z,75.74
2018-07-31T07:20:12.029Z,76.42
2018-07-31T07:21:11.999Z,77.04
2018-07-31T07:22:12.008Z,75.40
2018-07-31T07:23:11.953Z,75.10
2018-07-31T07:24:12.127Z,74.43
2018-07-31T07:25:11.909Z,74.04
2018-07-31T07:26:13.055Z,74.52
2018-07-31T07:27:11.865Z,74.27
2018-07-31T07:28:11.944Z,74.23
2018-07-31T07:29:11.828Z,73.97
2018-07-31T07:30:11.851Z,72.67
2018-07-31T07:31:11.785Z,74.43
2018-07-31T07:32:16.663Z,73.36
2018-07-31T07:33:11.788Z,72.49
2018-07-31T07:34:11.775Z,73.30
2018-07-31T07:35:11.702Z,72.52
2018-07-31T07:36:11.774Z,73.97
2018-07-31T07:37:11.657Z,72.52
2018-07-31T07:38:11.679Z,72.52
2018-07-31T07:39:11.615Z,72.71
2018-07-31T07:40:11.744Z,72.36
2018-07-31T07:41:11.565Z,70.71
2018-07-31T07:42:11.627Z,71.10
2018-07-31T07:43:11.526Z,72.36
2018-07-31T07:44:12.541Z,71.68
2018-07-31T07:45:11.482Z,72.55
2018-07-31T07:46:13.478Z,71.91
2018-07-31T07:47:11.449Z,71.23
2018-07-31T07:48:11.446Z,71.48
2018-07-31T07:49:11.395Z,72.45
2018-07-31T07:50:11.513Z,72.17
2018-07-31T07:51:11.362Z,71.10
2018-07-31T07:52:11.336Z,71.48
2018-07-31T07:53:11.321Z,72.01
2018-07-31T07:54:11.429Z,71.03
2018-07-31T07:55:11.272Z,71.10
2018-07-31T07:56:11.258Z,71.10
2018-07-31T07:57:11.237Z,70.90
2018-07-31T07:58:11.217Z,70.75
2018-07-31T07:59:11.189Z,70.90
2018-07-31T08:00:11.168Z,71.00
2018-07-31T08:01:11.152Z,70.71
2018-07-31T08:02:11.132Z,71.62
2018-07-31T08:03:11.118Z,71.23
2018-07-31T08:04:11.157Z,69.38
2018-07-31T08:05:11.064Z,68.96
2018-07-31T08:06:11.054Z,69.35
2018-07-31T08:07:11.026Z,69.96
2018-07-31T08:08:11.020Z,69.48
2018-07-31T08:09:10.984Z,68.51
2018-07-31T08:10:10.962Z,69.09
2018-07-31T08:11:10.966Z,67.93
2018-07-31T08:12:10.944Z,68.80
2018-07-31T08:13:10.887Z,70.26
2018-07-31T08:14:10.883Z,69.96
2018-07-31T08:15:10.850Z,69.19
2018-07-31T08:16:10.838Z,68.84
2018-07-31T08:17:10.802Z,68.54
2018-07-31T08:18:10.802Z,68.84
2018-07-31T08:19:10.762Z,68.41
2018-07-31T08:20:10.751Z,68.41
2018-07-31T08:21:10.733Z,67.54
2018-07-31T08:22:10.708Z,68.22
2018-07-31T08:23:10.682Z,68.99
2018-07-31T08:24:10.665Z,68.70
2018-07-31T08:25:10.657Z,67.44
2018-07-31T08:26:10.625Z,67.15
2018-07-31T08:27:10.609Z,67.15
2018-07-31T08:28:10.578Z,67.24
2018-07-31T08:29:10.559Z,66.86
2018-07-31T08:30:10.544Z,68.15
2018-07-31T08:31:10.529Z,67.54
2018-07-31T08:32:10.500Z,69.29
2018-07-31T08:33:10.476Z,69.32
2018-07-31T08:34:10.477Z,68.74
2018-07-31T08:35:10.442Z,69.51
2018-07-31T08:36:10.404Z,69.03
2018-07-31T08:37:10.397Z,67.93
2018-07-31T08:38:10.475Z,69.22
2018-07-31T08:39:10.348Z,69.42
2018-07-31T08:40:11.401Z,68.64
2018-07-31T08:41:10.308Z,68.74
2018-07-31T08:42:10.394Z,67.96
2018-07-31T08:43:10.266Z,69.13
2018-07-31T08:44:10.315Z,68.48
2018-07-31T08:45:10.221Z,66.53
2018-07-31T08:46:10.308Z,66.93
2018-07-31T08:47:10.183Z,67.99
2018-07-31T08:48:10.223Z,67.50
2018-07-31T08:49:10.140Z,66.66
2018-07-31T08:50:10.158Z,66.56
2018-07-31T08:51:10.114Z,66.27
2018-07-31T08:52:10.151Z,66.89
2018-07-31T08:53:10.062Z,65.23
2018-07-31T08:54:11.091Z,63.68
2018-07-31T08:55:10.006Z,63.48
2018-07-31T08:56:10.076Z,63.19
2018-07-31T08:57:09.971Z,62.60
2018-07-31T08:58:11.017Z,61.73
2018-07-31T08:59:09.938Z,62.12
2018-07-31T09:00:10.002Z,62.70
2018-07-31T09:01:09.883Z,61.08
2018-07-31T09:02:09.931Z,62.63
2018-07-31T09:03:09.847Z,62.28
2018-07-31T09:04:09.903Z,59.64
2018-07-31T09:05:09.800Z,60.62
2018-07-31T09:06:09.816Z,61.60
2018-07-31T09:07:09.779Z,61.21
2018-07-31T09:08:09.783Z,60.72
2018-07-31T09:09:09.733Z,60.72
2018-07-31T09:10:09.742Z,61.01
2018-07-31T09:11:09.694Z,59.94
2018-07-31T09:12:09.793Z,60.75
2018-07-31T09:13:09.638Z,61.14
2018-07-31T09:14:09.670Z,59.67
2018-07-31T09:15:09.597Z,59.97
2018-07-31T09:16:10.600Z,59.87
2018-07-31T09:17:09.560Z,59.61
2018-07-31T09:18:09.593Z,59.09
2018-07-31T09:19:09.516Z,58.70
2018-07-31T09:20:09.613Z,57.85
2018-07-31T09:21:09.473Z,57.46
2018-07-31T09:22:09.520Z,58.14
2018-07-31T09:23:09.431Z,58.24
2018-07-31T09:24:10.460Z,57.07
2018-07-31T09:25:09.409Z,58.44
2018-07-31T09:26:09.443Z,57.95
2018-07-31T09:27:09.352Z,57.75
2018-07-31T09:28:09.372Z,58.04
2018-07-31T09:29:09.307Z,57.26
2018-07-31T09:30:09.384Z,58.44
2018-07-31T09:31:09.327Z,57.26
2018-07-31T09:32:09.315Z,57.65
2018-07-31T09:33:09.229Z,57.68
2018-07-31T09:34:09.297Z,56.38
2018-07-31T09:35:09.206Z,57.07
2018-07-31T09:36:09.206Z,58.66
2018-07-31T09:37:09.143Z,57.20
2018-07-31T09:38:09.240Z,55.54
2018-07-31T09:39:09.117Z,55.34
2018-07-31T09:40:09.132Z,54.95
2018-07-31T09:41:09.087Z,53.58
2018-07-31T09:42:09.148Z,54.17
2018-07-31T09:43:55.128Z,55.54
2018-07-31T09:44:55.072Z,55.93
2018-07-31T09:45:55.060Z,54.75
2018-07-31T09:46:55.199Z,55.73
2018-07-31T09:47:55.008Z,57.29
2018-07-31T09:48:55.029Z,56.12
2018-07-31T09:49:55.007Z,55.93
2018-07-31T09:50:55.109Z,55.44
2018-07-31T09:51:54.957Z,55.54
2018-07-31T09:52:54.929Z,54.85
2018-07-31T09:53:54.892Z,55.15
2018-07-31T09:54:54.893Z,55.34
2018-07-31T09:55:54.843Z,55.15
2018-07-31T09:56:54.928Z,54.85
2018-07-31T09:57:54.807Z,55.27
2018-07-31T09:58:54.931Z,54.49
2018-07-31T09:59:54.761Z,56.54
2018-07-31T10:00:54.854Z,53.54
2018-07-31T10:01:54.717Z,52.76
2018-07-31T10:02:54.847Z,52.00
2018-07-31T10:03:54.688Z,51.90
2018-07-31T10:04:54.774Z,52.08
2018-07-31T10:05:54.675Z,51.59
2018-07-31T10:06:54.667Z,52.56
2018-07-31T10:07:54.630Z,49.63
2018-07-31T10:08:54.701Z,49.82
2018-07-31T10:09:54.555Z,50.24
2018-07-31T10:10:54.597Z,50.15
2018-07-31T10:12:40.798Z,50.05
2018-07-31T10:13:40.788Z,49.75
2018-07-31T10:14:40.715Z,50.24
2018-07-31T10:15:40.826Z,52.20
2018-07-31T10:16:40.670Z,51.03
2018-07-31T10:17:40.669Z,50.63
2018-07-31T10:18:40.739Z,50.46
2018-07-31T10:19:40.600Z,48.87
2018-07-31T10:20:40.646Z,48.99
2018-07-31T10:21:40.579Z,48.99
2018-07-31T10:22:40.656Z,48.99
2018-07-31T10:23:40.534Z,49.29
2018-07-31T10:24:40.578Z,49.70
2018-07-31T10:25:40.493Z,48.92
2018-07-31T10:26:40.584Z,49.04
2018-07-31T10:27:40.441Z,47.38
2018-07-31T10:28:40.417Z,47.16
2018-07-31T10:29:40.444Z,48.46
2018-07-31T10:30:40.531Z,48.14
2018-07-31T10:31:40.373Z,48.04
2018-07-31T10:32:40.408Z,48.04
2018-07-31T10:33:40.346Z,47.36
2018-07-31T10:34:40.329Z,46.57
2018-07-31T10:35:40.286Z,46.86
2018-07-31T10:36:40.343Z,47.16
2018-07-31T10:37:40.250Z,46.57
2018-07-31T10:38:40.243Z,46.77
2018-07-31T10:39:40.199Z,47.14
2018-07-31T10:40:40.272Z,47.43
2018-07-31T10:41:40.158Z,48.58
2018-07-31T10:42:41.201Z,47.09
2018-07-31T10:43:40.161Z,48.55
2018-07-31T10:44:40.185Z,49.63
2018-07-31T10:45:40.080Z,49.53
2018-07-31T10:46:40.058Z,49.92
2018-07-31T10:47:40.216Z,50.12
2018-07-31T10:48:40.184Z,49.43
2018-07-31T10:49:40.222Z,50.02
2018-07-31T10:50:40.490Z,50.54
2018-07-31T10:51:40.234Z,50.22
2018-07-31T10:52:40.302Z,49.07
2018-07-31T10:53:39.928Z,50.63
2018-07-31T10:54:40.048Z,49.36
2018-07-31T10:55:39.874Z,49.65
2018-07-31T10:56:39.965Z,50.15
2018-07-31T10:57:39.859Z,50.05
2018-07-31T10:58:40.091Z,49.55
2018-07-31T10:59:39.874Z,49.48
2018-07-31T11:00:39.784Z,48.68
2018-07-31T11:01:39.911Z,50.34
2018-07-31T11:02:39.842Z,49.36
2018-07-31T11:03:39.784Z,49.95
2018-07-31T11:04:39.700Z,50.54
2018-07-31T11:05:39.684Z,50.63
2018-07-31T11:06:39.663Z,49.09
2018-07-31T11:07:39.688Z,49.19
2018-07-31T11:08:39.617Z,47.92
2018-07-31T11:10:26.010Z,48.90
2018-07-31T11:11:25.985Z,48.60
2018-07-31T11:12:25.908Z,47.45
2018-07-31T11:13:26.011Z,45.89
2018-07-31T11:14:25.854Z,45.62
2018-07-31T11:15:25.844Z,45.42
2018-07-31T11:16:25.828Z,44.95
2018-07-31T11:17:25.932Z,45.34
2018-07-31T11:18:25.775Z,43.70
2018-07-31T11:19:25.834Z,42.72
2018-07-31T11:20:25.733Z,43.09
2018-07-31T11:21:25.903Z,45.44
2018-07-31T11:22:25.694Z,44.27
2018-07-31T11:23:25.684Z,44.56
2018-07-31T11:24:25.767Z,43.38
2018-07-31T11:25:25.632Z,43.09
2018-07-31T11:26:25.684Z,43.19
2018-07-31T11:27:25.630Z,43.98
2018-07-31T11:28:25.693Z,42.90
2018-07-31T11:29:25.556Z,43.98
2018-07-31T11:30:25.681Z,42.91
2018-07-31T11:31:25.522Z,43.70
2018-07-31T11:32:25.501Z,43.12
2018-07-31T11:33:25.605Z,43.82
2018-07-31T11:34:25.461Z,40.47
2018-07-31T11:35:25.644Z,40.37
2018-07-31T11:36:25.421Z,39.59
2018-07-31T11:37:25.531Z,40.58
2018-07-31T11:38:25.440Z,40.19
2018-07-31T11:39:25.555Z,40.19
2018-07-31T11:40:25.339Z,39.11
2018-07-31T11:41:25.573Z,39.11
2018-07-31T11:42:25.455Z,39.11
2018-07-31T11:43:26.701Z,39.70
2018-07-31T11:44:25.570Z,38.93
2018-07-31T11:45:25.507Z,38.72
2018-07-31T11:46:25.700Z,40.39
2018-07-31T11:47:25.217Z,39.61
2018-07-31T11:48:25.402Z,39.22
2018-07-31T11:49:25.162Z,39.78
2018-07-31T11:50:25.314Z,40.56
2018-07-31T11:51:25.127Z,41.25
2018-07-31T11:52:25.317Z,40.17
2018-07-31T11:53:25.094Z,39.19
2018-07-31T11:55:12.022Z,39.09
2018-07-31T11:56:11.971Z,39.22
2018-07-31T11:58:05.564Z,39.09
2018-07-31T11:59:05.552Z,38.41
2018-07-31T12:00:05.721Z,39.49
2018-07-31T12:01:05.519Z,39.39
2018-07-31T12:02:05.527Z,40.09
2018-07-31T12:03:05.479Z,39.22
2018-07-31T12:04:05.591Z,39.22
2018-07-31T12:05:05.417Z,39.19
2018-07-31T12:06:05.406Z,39.69
2018-07-31T12:07:05.432Z,39.98
2018-07-31T12:08:05.458Z,40.47
2018-07-31T12:09:05.459Z,40.37
2018-07-31T12:10:05.322Z,40.27
2018-07-31T12:11:05.344Z,40.95
2018-07-31T12:12:05.597Z,40.56
2018-07-31T12:13:06.092Z,40.39
2018-07-31T12:14:05.671Z,39.90
2018-07-31T12:15:05.354Z,40.21
2018-07-31T12:16:05.560Z,40.11
2018-07-31T12:17:05.473Z,39.45
2018-07-31T12:18:05.537Z,40.23
2018-07-31T12:19:05.211Z,40.23
2018-07-31T12:20:05.573Z,39.15
2018-07-31T12:21:05.117Z,38.96
2018-07-31T12:22:05.103Z,38.96
2018-07-31T12:23:05.107Z,39.84
2018-07-31T12:24:05.079Z,38.64
2018-07-31T12:25:05.068Z,39.33
2018-07-31T12:26:05.018Z,38.84
2018-07-31T12:27:06.124Z,38.96
2018-07-31T12:28:50.958Z,39.03
2018-07-31T12:29:50.900Z,38.84
2018-07-31T12:30:50.920Z,39.23
2018-07-31T12:31:50.987Z,39.22
2018-07-31T12:32:50.893Z,40.39
2018-07-31T12:33:50.903Z,40.08
2018-07-31T12:34:50.818Z,40.56
2018-07-31T12:35:50.797Z,40.74
2018-07-31T12:36:50.790Z,40.74
2018-07-31T12:37:50.809Z,40.37
2018-07-31T12:38:50.737Z,41.15
2018-07-31T12:39:50.718Z,40.86
2018-07-31T12:40:50.747Z,40.66
2018-07-31T12:41:50.687Z,39.69
2018-07-31T12:42:51.777Z,40.37
2018-07-31T12:43:50.647Z,41.03
2018-07-31T12:44:50.656Z,40.55
2018-07-31T12:45:50.608Z,41.23
2018-07-31T12:46:51.693Z,41.92
2018-07-31T12:47:50.582Z,41.99
2018-07-31T12:48:50.589Z,42.68
2018-07-31T12:49:50.564Z,42.58
2018-07-31T12:50:50.585Z,42.68
2018-07-31T12:51:50.493Z,42.19
2018-07-31T12:52:50.609Z,42.09
2018-07-31T12:53:50.471Z,42.85
2018-07-31T12:54:50.519Z,43.05
2018-07-31T12:55:50.430Z,42.27
2018-07-31T12:56:50.395Z,42.27
2018-07-31T12:58:36.817Z,42.66
2018-07-31T12:59:36.774Z,42.09
2018-07-31T13:00:36.751Z,42.80
2018-07-31T13:01:36.733Z,42.02
2018-07-31T13:02:36.707Z,42.11
2018-07-31T13:03:36.682Z,42.21
2018-07-31T13:04:36.682Z,41.33